Bluff Point, New York
Current Conditions -  °F | °C
As of 4:53 AM on Thursday 18 Dec 2014 (Local Time) from KPEO Reporting Station
Overcast Overcast  
Wind Chill: 22°   Ceiling: 2700
Heat Index: 32°   Visibility: 10mi
Dew Point: 22°   Wind: 15mph
Humidity: 66%   Direction: 270°W
Pressure: 29.99"   Gusts: 25mph
Location:  42.58°N, 77.128°W
Report Text: KPEO 180953Z AUTO 27013G22KT 10SM OVC027 00/M06 A2999 RMK AO2 PK WND 25027/0928 SLP164 T00001056
Loading
Personal Weather Stations






























Interactive Weather Map New forecast layout! Learn more

10-Day Weather Forecast

Advertisements
Track Severe Weather on mobile